sensor_id;sensor_type;location;lat;lon;timestamp;P1;durP1;ratioP1;P2;durP2;ratioP2
25279;SDS011;13225;47.804;12.116;2023-06-22T00:01:23;15.45;;;7.80;;
25279;SDS011;13225;47.804;12.116;2023-06-22T00:03:49;16.73;;;7.70;;
25279;SDS011;13225;47.804;12.116;2023-06-22T00:06:14;17.17;;;7.53;;
25279;SDS011;13225;47.804;12.116;2023-06-22T00:08:40;17.70;;;8.10;;
25279;SDS011;13225;47.804;12.116;2023-06-22T00:11:05;14.55;;;7.47;;
25279;SDS011;13225;47.804;12.116;2023-06-22T00:13:31;14.00;;;7.85;;
25279;SDS011;13225;47.804;12.116;2023-06-22T00:15:57;14.93;;;7.53;;
25279;SDS011;13225;47.804;12.116;2023-06-22T00:18:22;12.65;;;7.25;;
25279;SDS011;13225;47.804;12.116;2023-06-22T00:20:52;11.48;;;6.97;;
25279;SDS011;13225;47.804;12.116;2023-06-22T00:23:22;12.65;;;7.60;;
25279;SDS011;13225;47.804;12.116;2023-06-22T00:25:49;14.05;;;7.22;;
25279;SDS011;13225;47.804;12.116;2023-06-22T00:28:14;18.63;;;7.82;;
25279;SDS011;13225;47.804;12.116;2023-06-22T00:30:40;16.38;;;8.48;;
25279;SDS011;13225;47.804;12.116;2023-06-22T00:33:06;15.73;;;8.40;;
25279;SDS011;13225;47.804;12.116;2023-06-22T00:35:32;15.23;;;8.27;;
25279;SDS011;13225;47.804;12.116;2023-06-22T00:37:59;18.58;;;8.25;;
25279;SDS011;13225;47.804;12.116;2023-06-22T00:40:32;15.88;;;8.93;;
25279;SDS011;13225;47.804;12.116;2023-06-22T00:42:58;16.10;;;7.70;;
25279;SDS011;13225;47.804;12.116;2023-06-22T00:45:24;15.10;;;7.72;;
25279;SDS011;13225;47.804;12.116;2023-06-22T00:47:53;12.82;;;7.10;;
25279;SDS011;13225;47.804;12.116;2023-06-22T00:50:22;16.05;;;9.32;;
25279;SDS011;13225;47.804;12.116;2023-06-22T00:52:52;19.05;;;8.48;;
25279;SDS011;13225;47.804;12.116;2023-06-22T00:55:23;13.88;;;7.70;;
25279;SDS011;13225;47.804;12.116;2023-06-22T00:57:51;18.00;;;9.00;;
25279;SDS011;13225;47.804;12.116;2023-06-22T01:00:20;19.63;;;8.40;;
25279;SDS011;13225;47.804;12.116;2023-06-22T01:02:50;18.65;;;9.73;;
25279;SDS011;13225;47.804;12.116;2023-06-22T01:05:18;18.52;;;9.82;;
25279;SDS011;13225;47.804;12.116;2023-06-22T01:10:54;17.10;;;9.50;;
25279;SDS011;13225;47.804;12.116;2023-06-22T01:18:44;16.35;;;8.15;;
25279;SDS011;13225;47.804;12.116;2023-06-22T01:21:13;15.13;;;8.40;;
25279;SDS011;13225;47.804;12.116;2023-06-22T01:26:53;15.75;;;7.88;;
25279;SDS011;13225;47.804;12.116;2023-06-22T01:29:23;14.68;;;7.40;;
25279;SDS011;13225;47.804;12.116;2023-06-22T01:31:51;15.67;;;8.30;;
25279;SDS011;13225;47.804;12.116;2023-06-22T01:34:19;24.10;;;11.40;;
25279;SDS011;13225;47.804;12.116;2023-06-22T01:36:46;12.32;;;7.20;;
25279;SDS011;13225;47.804;12.116;2023-06-22T01:39:12;14.73;;;6.95;;
25279;SDS011;13225;47.804;12.116;2023-06-22T01:41:38;15.13;;;7.35;;
25279;SDS011;13225;47.804;12.116;2023-06-22T01:44:07;12.57;;;7.40;;
25279;SDS011;13225;47.804;12.116;2023-06-22T01:46:34;15.15;;;7.93;;
25279;SDS011;13225;47.804;12.116;2023-06-22T01:49:04;18.10;;;8.25;;
25279;SDS011;13225;47.804;12.116;2023-06-22T01:51:30;15.82;;;8.30;;
25279;SDS011;13225;47.804;12.116;2023-06-22T01:53:56;15.85;;;8.20;;
25279;SDS011;13225;47.804;12.116;2023-06-22T01:56:22;15.63;;;8.50;;
25279;SDS011;13225;47.804;12.116;2023-06-22T01:58:50;20.08;;;9.43;;
25279;SDS011;13225;47.804;12.116;2023-06-22T02:01:24;18.17;;;8.48;;
25279;SDS011;13225;47.804;12.116;2023-06-22T02:06:39;17.38;;;9.15;;
25279;SDS011;13225;47.804;12.116;2023-06-22T02:09:15;17.70;;;9.23;;
25279;SDS011;13225;47.804;12.116;2023-06-22T02:11:45;16.10;;;8.45;;
25279;SDS011;13225;47.804;12.116;2023-06-22T02:14:13;17.30;;;8.82;;
25279;SDS011;13225;47.804;12.116;2023-06-22T02:16:40;18.42;;;9.07;;
25279;SDS011;13225;47.804;12.116;2023-06-22T02:19:06;17.58;;;9.60;;
25279;SDS011;13225;47.804;12.116;2023-06-22T02:21:33;15.20;;;8.65;;
25279;SDS011;13225;47.804;12.116;2023-06-22T02:23:58;15.57;;;8.25;;
25279;SDS011;13225;47.804;12.116;2023-06-22T02:26:27;15.32;;;8.68;;
25279;SDS011;13225;47.804;12.116;2023-06-22T02:28:53;16.95;;;9.05;;
25279;SDS011;13225;47.804;12.116;2023-06-22T02:31:18;13.48;;;9.13;;
25279;SDS011;13225;47.804;12.116;2023-06-22T02:33:45;22.35;;;9.95;;
25279;SDS011;13225;47.804;12.116;2023-06-22T02:36:10;14.13;;;9.07;;
25279;SDS011;13225;47.804;12.116;2023-06-22T02:38:37;17.98;;;9.45;;
25279;SDS011;13225;47.804;12.116;2023-06-22T02:41:05;17.50;;;9.60;;
25279;SDS011;13225;47.804;12.116;2023-06-22T02:43:31;17.63;;;9.82;;
25279;SDS011;13225;47.804;12.116;2023-06-22T02:45:57;20.67;;;9.30;;
25279;SDS011;13225;47.804;12.116;2023-06-22T02:48:22;20.00;;;10.05;;
25279;SDS011;13225;47.804;12.116;2023-06-22T02:50:48;15.80;;;9.45;;
25279;SDS011;13225;47.804;12.116;2023-06-22T02:53:13;17.27;;;9.23;;
25279;SDS011;13225;47.804;12.116;2023-06-22T02:55:39;19.95;;;9.90;;
25279;SDS011;13225;47.804;12.116;2023-06-22T02:58:04;18.08;;;9.80;;
25279;SDS011;13225;47.804;12.116;2023-06-22T03:00:30;19.48;;;10.10;;
25279;SDS011;13225;47.804;12.116;2023-06-22T03:02:56;16.42;;;10.02;;
25279;SDS011;13225;47.804;12.116;2023-06-22T03:05:22;18.73;;;10.65;;
25279;SDS011;13225;47.804;12.116;2023-06-22T03:07:48;16.40;;;9.50;;
25279;SDS011;13225;47.804;12.116;2023-06-22T03:10:14;16.17;;;9.57;;
25279;SDS011;13225;47.804;12.116;2023-06-22T03:12:40;20.23;;;8.98;;
25279;SDS011;13225;47.804;12.116;2023-06-22T03:15:07;18.40;;;9.60;;
25279;SDS011;13225;47.804;12.116;2023-06-22T03:17:34;19.98;;;8.88;;
25279;SDS011;13225;47.804;12.116;2023-06-22T03:20:01;17.30;;;8.68;;
25279;SDS011;13225;47.804;12.116;2023-06-22T03:22:33;14.30;;;7.75;;
25279;SDS011;13225;47.804;12.116;2023-06-22T03:24:59;14.95;;;8.38;;
25279;SDS011;13225;47.804;12.116;2023-06-22T03:27:25;17.65;;;8.45;;
25279;SDS011;13225;47.804;12.116;2023-06-22T03:29:50;15.45;;;8.00;;
25279;SDS011;13225;47.804;12.116;2023-06-22T03:32:16;16.70;;;8.77;;
25279;SDS011;13225;47.804;12.116;2023-06-22T03:34:41;17.52;;;8.63;;
25279;SDS011;13225;47.804;12.116;2023-06-22T03:37:12;16.38;;;8.63;;
25279;SDS011;13225;47.804;12.116;2023-06-22T03:39:39;14.30;;;8.27;;
25279;SDS011;13225;47.804;12.116;2023-06-22T03:42:04;20.08;;;8.90;;
25279;SDS011;13225;47.804;12.116;2023-06-22T03:44:30;16.50;;;8.43;;
25279;SDS011;13225;47.804;12.116;2023-06-22T03:46:56;17.10;;;8.95;;
25279;SDS011;13225;47.804;12.116;2023-06-22T03:49:22;16.75;;;8.23;;
25279;SDS011;13225;47.804;12.116;2023-06-22T03:51:47;14.73;;;8.10;;
25279;SDS011;13225;47.804;12.116;2023-06-22T03:54:13;20.48;;;9.13;;
25279;SDS011;13225;47.804;12.116;2023-06-22T03:56:38;16.58;;;8.25;;
25279;SDS011;13225;47.804;12.116;2023-06-22T03:59:04;18.60;;;9.60;;
25279;SDS011;13225;47.804;12.116;2023-06-22T04:01:29;19.25;;;9.23;;
25279;SDS011;13225;47.804;12.116;2023-06-22T04:03:55;19.70;;;8.95;;
25279;SDS011;13225;47.804;12.116;2023-06-22T04:06:20;21.67;;;9.48;;
25279;SDS011;13225;47.804;12.116;2023-06-22T04:08:47;16.23;;;8.98;;
25279;SDS011;13225;47.804;12.116;2023-06-22T04:11:16;17.85;;;9.57;;
25279;SDS011;13225;47.804;12.116;2023-06-22T04:13:42;17.02;;;8.75;;
25279;SDS011;13225;47.804;12.116;2023-06-22T04:16:08;19.27;;;8.15;;
25279;SDS011;13225;47.804;12.116;2023-06-22T04:18:34;18.23;;;8.20;;
25279;SDS011;13225;47.804;12.116;2023-06-22T04:20:59;17.90;;;9.75;;
25279;SDS011;13225;47.804;12.116;2023-06-22T04:23:25;18.40;;;11.05;;
25279;SDS011;13225;47.804;12.116;2023-06-22T04:25:51;15.43;;;9.50;;
25279;SDS011;13225;47.804;12.116;2023-06-22T04:28:16;15.68;;;8.98;;
25279;SDS011;13225;47.804;12.116;2023-06-22T04:30:42;15.10;;;8.73;;
25279;SDS011;13225;47.804;12.116;2023-06-22T04:33:14;18.95;;;10.23;;
25279;SDS011;13225;47.804;12.116;2023-06-22T04:35:40;23.88;;;8.80;;
25279;SDS011;13225;47.804;12.116;2023-06-22T04:38:08;15.90;;;8.55;;
25279;SDS011;13225;47.804;12.116;2023-06-22T04:40:34;16.02;;;9.20;;
25279;SDS011;13225;47.804;12.116;2023-06-22T04:43:00;18.58;;;9.00;;
25279;SDS011;13225;47.804;12.116;2023-06-22T04:45:27;21.85;;;9.18;;
25279;SDS011;13225;47.804;12.116;2023-06-22T04:47:54;16.42;;;8.88;;
25279;SDS011;13225;47.804;12.116;2023-06-22T04:50:20;22.15;;;9.82;;
25279;SDS011;13225;47.804;12.116;2023-06-22T04:52:47;22.42;;;9.27;;
25279;SDS011;13225;47.804;12.116;2023-06-22T04:55:13;20.52;;;9.75;;
25279;SDS011;13225;47.804;12.116;2023-06-22T04:57:43;17.67;;;8.35;;
25279;SDS011;13225;47.804;12.116;2023-06-22T05:00:13;18.33;;;7.95;;
25279;SDS011;13225;47.804;12.116;2023-06-22T05:02:42;19.85;;;8.13;;
25279;SDS011;13225;47.804;12.116;2023-06-22T05:05:09;18.77;;;9.63;;
25279;SDS011;13225;47.804;12.116;2023-06-22T05:07:39;15.40;;;9.18;;
25279;SDS011;13225;47.804;12.116;2023-06-22T05:10:08;17.08;;;8.75;;
25279;SDS011;13225;47.804;12.116;2023-06-22T05:12:40;14.38;;;6.95;;
25279;SDS011;13225;47.804;12.116;2023-06-22T05:15:07;14.23;;;7.88;;
25279;SDS011;13225;47.804;12.116;2023-06-22T05:17:33;15.10;;;7.00;;
25279;SDS011;13225;47.804;12.116;2023-06-22T05:19:59;11.82;;;6.60;;
25279;SDS011;13225;47.804;12.116;2023-06-22T05:22:25;15.02;;;6.78;;
25279;SDS011;13225;47.804;12.116;2023-06-22T05:24:51;13.30;;;6.80;;
25279;SDS011;13225;47.804;12.116;2023-06-22T05:27:16;10.07;;;7.00;;
25279;SDS011;13225;47.804;12.116;2023-06-22T05:29:42;16.20;;;7.25;;
25279;SDS011;13225;47.804;12.116;2023-06-22T05:32:08;14.25;;;7.38;;
25279;SDS011;13225;47.804;12.116;2023-06-22T05:34:34;11.55;;;6.50;;
25279;SDS011;13225;47.804;12.116;2023-06-22T05:36:59;13.77;;;7.57;;
25279;SDS011;13225;47.804;12.116;2023-06-22T05:39:25;12.75;;;7.93;;
25279;SDS011;13225;47.804;12.116;2023-06-22T05:41:51;14.35;;;7.80;;
25279;SDS011;13225;47.804;12.116;2023-06-22T05:44:17;12.25;;;7.43;;
25279;SDS011;13225;47.804;12.116;2023-06-22T05:46:43;17.38;;;8.43;;
25279;SDS011;13225;47.804;12.116;2023-06-22T05:49:11;15.75;;;8.43;;
25279;SDS011;13225;47.804;12.116;2023-06-22T05:51:37;21.17;;;8.07;;
25279;SDS011;13225;47.804;12.116;2023-06-22T05:54:02;17.48;;;8.52;;
25279;SDS011;13225;47.804;12.116;2023-06-22T05:56:28;11.23;;;7.50;;
25279;SDS011;13225;47.804;12.116;2023-06-22T05:58:54;14.45;;;7.97;;
25279;SDS011;13225;47.804;12.116;2023-06-22T06:01:19;16.10;;;7.22;;
25279;SDS011;13225;47.804;12.116;2023-06-22T06:03:45;16.95;;;7.70;;
25279;SDS011;13225;47.804;12.116;2023-06-22T06:06:11;28.35;;;9.15;;
25279;SDS011;13225;47.804;12.116;2023-06-22T06:08:37;17.13;;;7.80;;
25279;SDS011;13225;47.804;12.116;2023-06-22T06:11:03;17.40;;;7.60;;
25279;SDS011;13225;47.804;12.116;2023-06-22T06:13:29;20.55;;;8.10;;
25279;SDS011;13225;47.804;12.116;2023-06-22T06:15:56;15.80;;;8.35;;
25279;SDS011;13225;47.804;12.116;2023-06-22T06:18:22;13.93;;;7.00;;
25279;SDS011;13225;47.804;12.116;2023-06-22T06:20:48;19.02;;;8.25;;
25279;SDS011;13225;47.804;12.116;2023-06-22T06:23:14;13.43;;;8.10;;
25279;SDS011;13225;47.804;12.116;2023-06-22T06:25:39;19.08;;;8.48;;
25279;SDS011;13225;47.804;12.116;2023-06-22T06:28:05;18.33;;;8.38;;
25279;SDS011;13225;47.804;12.116;2023-06-22T06:30:31;19.38;;;8.07;;
25279;SDS011;13225;47.804;12.116;2023-06-22T06:32:56;20.27;;;7.80;;
25279;SDS011;13225;47.804;12.116;2023-06-22T06:35:22;16.48;;;8.35;;
25279;SDS011;13225;47.804;12.116;2023-06-22T06:37:48;17.35;;;8.27;;
25279;SDS011;13225;47.804;12.116;2023-06-22T06:40:15;16.25;;;8.90;;
25279;SDS011;13225;47.804;12.116;2023-06-22T06:42:43;17.15;;;8.48;;
25279;SDS011;13225;47.804;12.116;2023-06-22T06:45:11;15.68;;;7.70;;
25279;SDS011;13225;47.804;12.116;2023-06-22T06:47:37;17.45;;;7.63;;
25279;SDS011;13225;47.804;12.116;2023-06-22T06:50:04;14.60;;;7.90;;
25279;SDS011;13225;47.804;12.116;2023-06-22T06:52:30;13.43;;;8.25;;
25279;SDS011;13225;47.804;12.116;2023-06-22T06:54:56;16.67;;;7.47;;
25279;SDS011;13225;47.804;12.116;2023-06-22T06:57:22;15.73;;;8.82;;
25279;SDS011;13225;47.804;12.116;2023-06-22T06:59:47;18.00;;;8.73;;
25279;SDS011;13225;47.804;12.116;2023-06-22T07:02:14;23.17;;;8.55;;
25279;SDS011;13225;47.804;12.116;2023-06-22T07:04:41;16.23;;;8.13;;
25279;SDS011;13225;47.804;12.116;2023-06-22T07:07:06;15.45;;;7.72;;
25279;SDS011;13225;47.804;12.116;2023-06-22T07:09:32;15.45;;;8.55;;
25279;SDS011;13225;47.804;12.116;2023-06-22T07:11:57;19.52;;;8.60;;
25279;SDS011;13225;47.804;12.116;2023-06-22T07:14:23;17.38;;;7.78;;
25279;SDS011;13225;47.804;12.116;2023-06-22T07:16:49;17.10;;;7.75;;
25279;SDS011;13225;47.804;12.116;2023-06-22T07:19:14;14.40;;;7.68;;
25279;SDS011;13225;47.804;12.116;2023-06-22T07:21:40;12.73;;;7.50;;
25279;SDS011;13225;47.804;12.116;2023-06-22T07:24:06;16.15;;;8.10;;
25279;SDS011;13225;47.804;12.116;2023-06-22T07:26:32;19.17;;;7.80;;
25279;SDS011;13225;47.804;12.116;2023-06-22T07:28:58;13.50;;;7.60;;
25279;SDS011;13225;47.804;12.116;2023-06-22T07:31:26;16.67;;;7.40;;
25279;SDS011;13225;47.804;12.116;2023-06-22T07:33:52;14.77;;;7.45;;
25279;SDS011;13225;47.804;12.116;2023-06-22T07:36:17;13.82;;;6.97;;
25279;SDS011;13225;47.804;12.116;2023-06-22T07:38:43;15.32;;;8.13;;
25279;SDS011;13225;47.804;12.116;2023-06-22T07:41:09;12.60;;;7.30;;
25279;SDS011;13225;47.804;12.116;2023-06-22T07:43:34;15.65;;;7.80;;
25279;SDS011;13225;47.804;12.116;2023-06-22T07:46:02;14.18;;;7.53;;
25279;SDS011;13225;47.804;12.116;2023-06-22T07:48:28;16.70;;;7.82;;
25279;SDS011;13225;47.804;12.116;2023-06-22T07:50:54;15.25;;;8.20;;
25279;SDS011;13225;47.804;12.116;2023-06-22T07:53:20;14.15;;;7.47;;
25279;SDS011;13225;47.804;12.116;2023-06-22T07:55:47;12.68;;;7.25;;
25279;SDS011;13225;47.804;12.116;2023-06-22T07:58:12;14.38;;;7.53;;
25279;SDS011;13225;47.804;12.116;2023-06-22T08:00:38;17.02;;;7.20;;
25279;SDS011;13225;47.804;12.116;2023-06-22T08:03:04;13.65;;;6.97;;
25279;SDS011;13225;47.804;12.116;2023-06-22T08:05:30;17.52;;;7.38;;
25279;SDS011;13225;47.804;12.116;2023-06-22T08:07:56;15.18;;;7.18;;
25279;SDS011;13225;47.804;12.116;2023-06-22T08:10:22;14.32;;;9.48;;
25279;SDS011;13225;47.804;12.116;2023-06-22T08:12:48;13.95;;;7.28;;
25279;SDS011;13225;47.804;12.116;2023-06-22T08:15:14;18.90;;;7.65;;
25279;SDS011;13225;47.804;12.116;2023-06-22T08:17:40;16.00;;;7.47;;
25279;SDS011;13225;47.804;12.116;2023-06-22T08:20:06;18.17;;;7.80;;
25279;SDS011;13225;47.804;12.116;2023-06-22T08:22:37;14.48;;;8.32;;
25279;SDS011;13225;47.804;12.116;2023-06-22T08:25:03;10.48;;;7.15;;
25279;SDS011;13225;47.804;12.116;2023-06-22T08:27:30;14.27;;;7.75;;
25279;SDS011;13225;47.804;12.116;2023-06-22T08:29:59;15.40;;;7.90;;
25279;SDS011;13225;47.804;12.116;2023-06-22T08:32:25;14.05;;;7.78;;
25279;SDS011;13225;47.804;12.116;2023-06-22T08:34:54;14.07;;;8.15;;
25279;SDS011;13225;47.804;12.116;2023-06-22T08:37:21;16.67;;;7.45;;
25279;SDS011;13225;47.804;12.116;2023-06-22T08:39:49;17.08;;;7.80;;
25279;SDS011;13225;47.804;12.116;2023-06-22T08:42:15;16.10;;;8.32;;
25279;SDS011;13225;47.804;12.116;2023-06-22T08:44:41;15.13;;;8.32;;
25279;SDS011;13225;47.804;12.116;2023-06-22T08:47:06;13.30;;;7.32;;
25279;SDS011;13225;47.804;12.116;2023-06-22T08:49:32;19.70;;;7.97;;
25279;SDS011;13225;47.804;12.116;2023-06-22T08:51:58;19.13;;;8.43;;
25279;SDS011;13225;47.804;12.116;2023-06-22T08:54:23;17.33;;;7.90;;
25279;SDS011;13225;47.804;12.116;2023-06-22T08:56:49;15.73;;;7.68;;
25279;SDS011;13225;47.804;12.116;2023-06-22T08:59:14;17.67;;;7.82;;
25279;SDS011;13225;47.804;12.116;2023-06-22T09:01:40;16.25;;;7.93;;
25279;SDS011;13225;47.804;12.116;2023-06-22T09:04:06;17.55;;;8.20;;
25279;SDS011;13225;47.804;12.116;2023-06-22T09:06:34;16.75;;;7.80;;
25279;SDS011;13225;47.804;12.116;2023-06-22T09:08:59;17.30;;;8.15;;
25279;SDS011;13225;47.804;12.116;2023-06-22T09:11:25;15.68;;;8.25;;
25279;SDS011;13225;47.804;12.116;2023-06-22T09:13:51;16.73;;;8.00;;
25279;SDS011;13225;47.804;12.116;2023-06-22T09:16:18;13.30;;;7.40;;
25279;SDS011;13225;47.804;12.116;2023-06-22T09:18:46;13.63;;;7.55;;
25279;SDS011;13225;47.804;12.116;2023-06-22T09:21:12;13.50;;;7.70;;
25279;SDS011;13225;47.804;12.116;2023-06-22T09:23:38;15.05;;;7.43;;
25279;SDS011;13225;47.804;12.116;2023-06-22T09:26:04;14.00;;;7.28;;
25279;SDS011;13225;47.804;12.116;2023-06-22T09:28:29;12.13;;;7.35;;
25279;SDS011;13225;47.804;12.116;2023-06-22T09:30:55;18.77;;;7.30;;
25279;SDS011;13225;47.804;12.116;2023-06-22T09:33:23;13.88;;;8.02;;
25279;SDS011;13225;47.804;12.116;2023-06-22T09:35:49;14.23;;;7.25;;
25279;SDS011;13225;47.804;12.116;2023-06-22T09:38:15;17.48;;;7.75;;
25279;SDS011;13225;47.804;12.116;2023-06-22T09:40:41;13.25;;;7.13;;
25279;SDS011;13225;47.804;12.116;2023-06-22T09:43:07;15.02;;;7.03;;
25279;SDS011;13225;47.804;12.116;2023-06-22T09:45:33;13.73;;;7.65;;
25279;SDS011;13225;47.804;12.116;2023-06-22T09:47:58;18.25;;;7.47;;
25279;SDS011;13225;47.804;12.116;2023-06-22T09:50:24;15.48;;;7.03;;
25279;SDS011;13225;47.804;12.116;2023-06-22T09:52:50;14.23;;;6.93;;
25279;SDS011;13225;47.804;12.116;2023-06-22T09:55:19;17.10;;;7.20;;
25279;SDS011;13225;47.804;12.116;2023-06-22T09:57:45;14.40;;;7.20;;
25279;SDS011;13225;47.804;12.116;2023-06-22T10:00:11;15.45;;;7.95;;
25279;SDS011;13225;47.804;12.116;2023-06-22T10:02:38;16.25;;;7.10;;
25279;SDS011;13225;47.804;12.116;2023-06-22T10:05:04;15.38;;;6.40;;
25279;SDS011;13225;47.804;12.116;2023-06-22T10:07:30;14.57;;;7.60;;
25279;SDS011;13225;47.804;12.116;2023-06-22T10:09:56;10.70;;;7.30;;
25279;SDS011;13225;47.804;12.116;2023-06-22T10:12:21;13.20;;;6.85;;
25279;SDS011;13225;47.804;12.116;2023-06-22T10:14:47;16.58;;;6.53;;
25279;SDS011;13225;47.804;12.116;2023-06-22T10:17:12;15.75;;;7.10;;
25279;SDS011;13225;47.804;12.116;2023-06-22T10:19:38;16.02;;;7.22;;
25279;SDS011;13225;47.804;12.116;2023-06-22T10:22:04;12.85;;;6.30;;
25279;SDS011;13225;47.804;12.116;2023-06-22T10:24:30;16.42;;;7.30;;
25279;SDS011;13225;47.804;12.116;2023-06-22T10:26:55;12.13;;;6.47;;
25279;SDS011;13225;47.804;12.116;2023-06-22T10:29:21;13.93;;;7.18;;
25279;SDS011;13225;47.804;12.116;2023-06-22T10:31:47;10.63;;;6.03;;
25279;SDS011;13225;47.804;12.116;2023-06-22T10:34:12;14.95;;;6.20;;
25279;SDS011;13225;47.804;12.116;2023-06-22T10:36:38;11.52;;;6.38;;
25279;SDS011;13225;47.804;12.116;2023-06-22T10:39:04;12.38;;;6.95;;
25279;SDS011;13225;47.804;12.116;2023-06-22T10:41:29;13.07;;;7.13;;
25279;SDS011;13225;47.804;12.116;2023-06-22T10:43:55;15.02;;;6.72;;
25279;SDS011;13225;47.804;12.116;2023-06-22T10:46:21;15.95;;;6.88;;
25279;SDS011;13225;47.804;12.116;2023-06-22T10:48:49;16.30;;;6.45;;
25279;SDS011;13225;47.804;12.116;2023-06-22T10:51:14;14.75;;;7.15;;
25279;SDS011;13225;47.804;12.116;2023-06-22T10:53:40;13.45;;;7.10;;
25279;SDS011;13225;47.804;12.116;2023-06-22T10:56:06;14.30;;;7.15;;
25279;SDS011;13225;47.804;12.116;2023-06-22T10:58:31;15.18;;;6.57;;
25279;SDS011;13225;47.804;12.116;2023-06-22T11:00:57;13.73;;;6.43;;
25279;SDS011;13225;47.804;12.116;2023-06-22T11:03:24;14.00;;;6.75;;
25279;SDS011;13225;47.804;12.116;2023-06-22T11:05:49;17.80;;;7.10;;
25279;SDS011;13225;47.804;12.116;2023-06-22T11:08:15;16.20;;;6.60;;
25279;SDS011;13225;47.804;12.116;2023-06-22T11:10:40;15.88;;;7.30;;
25279;SDS011;13225;47.804;12.116;2023-06-22T11:13:06;17.20;;;6.63;;
25279;SDS011;13225;47.804;12.116;2023-06-22T11:15:34;16.05;;;6.72;;
25279;SDS011;13225;47.804;12.116;2023-06-22T11:18:01;15.23;;;6.82;;
25279;SDS011;13225;47.804;12.116;2023-06-22T11:20:26;13.00;;;6.53;;
25279;SDS011;13225;47.804;12.116;2023-06-22T11:22:52;11.25;;;6.20;;
25279;SDS011;13225;47.804;12.116;2023-06-22T11:25:17;15.15;;;6.50;;
25279;SDS011;13225;47.804;12.116;2023-06-22T11:27:43;14.02;;;7.00;;
25279;SDS011;13225;47.804;12.116;2023-06-22T11:30:09;12.40;;;6.55;;
25279;SDS011;13225;47.804;12.116;2023-06-22T11:32:34;14.02;;;6.38;;
25279;SDS011;13225;47.804;12.116;2023-06-22T11:35:00;13.10;;;6.53;;
25279;SDS011;13225;47.804;12.116;2023-06-22T11:37:26;19.48;;;6.57;;
25279;SDS011;13225;47.804;12.116;2023-06-22T11:39:51;16.38;;;7.05;;
25279;SDS011;13225;47.804;12.116;2023-06-22T11:42:19;13.68;;;6.60;;
25279;SDS011;13225;47.804;12.116;2023-06-22T11:44:45;15.88;;;6.25;;
25279;SDS011;13225;47.804;12.116;2023-06-22T11:47:11;10.93;;;5.50;;
25279;SDS011;13225;47.804;12.116;2023-06-22T11:49:36;14.25;;;5.80;;
25279;SDS011;13225;47.804;12.116;2023-06-22T11:52:02;14.77;;;5.75;;
25279;SDS011;13225;47.804;12.116;2023-06-22T11:54:28;10.60;;;5.53;;
25279;SDS011;13225;47.804;12.116;2023-06-22T11:56:53;17.05;;;5.97;;
25279;SDS011;13225;47.804;12.116;2023-06-22T11:59:19;13.90;;;5.80;;
25279;SDS011;13225;47.804;12.116;2023-06-22T12:01:46;11.25;;;5.25;;
25279;SDS011;13225;47.804;12.116;2023-06-22T12:04:11;17.13;;;5.80;;
25279;SDS011;13225;47.804;12.116;2023-06-22T12:06:37;14.23;;;6.05;;
25279;SDS011;13225;47.804;12.116;2023-06-22T12:09:06;13.10;;;5.28;;
25279;SDS011;13225;47.804;12.116;2023-06-22T12:11:32;13.80;;;5.22;;
25279;SDS011;13225;47.804;12.116;2023-06-22T12:13:58;17.58;;;5.20;;
25279;SDS011;13225;47.804;12.116;2023-06-22T12:16:27;13.40;;;5.47;;
25279;SDS011;13225;47.804;12.116;2023-06-22T12:18:53;12.00;;;5.80;;
25279;SDS011;13225;47.804;12.116;2023-06-22T12:21:19;13.38;;;4.90;;
25279;SDS011;13225;47.804;12.116;2023-06-22T12:23:45;12.35;;;5.60;;
25279;SDS011;13225;47.804;12.116;2023-06-22T12:26:11;11.18;;;5.10;;
25279;SDS011;13225;47.804;12.116;2023-06-22T12:28:36;13.38;;;5.35;;
25279;SDS011;13225;47.804;12.116;2023-06-22T12:31:02;14.93;;;5.53;;
25279;SDS011;13225;47.804;12.116;2023-06-22T12:33:27;15.30;;;5.65;;
25279;SDS011;13225;47.804;12.116;2023-06-22T12:35:55;14.80;;;5.57;;
25279;SDS011;13225;47.804;12.116;2023-06-22T12:38:21;15.25;;;5.70;;
25279;SDS011;13225;47.804;12.116;2023-06-22T12:40:47;17.63;;;6.25;;
25279;SDS011;13225;47.804;12.116;2023-06-22T12:43:14;12.18;;;5.68;;
25279;SDS011;13225;47.804;12.116;2023-06-22T12:45:39;13.20;;;5.82;;
25279;SDS011;13225;47.804;12.116;2023-06-22T12:48:05;11.68;;;5.20;;
25279;SDS011;13225;47.804;12.116;2023-06-22T12:50:31;13.07;;;5.82;;
25279;SDS011;13225;47.804;12.116;2023-06-22T12:52:57;14.48;;;5.75;;
25279;SDS011;13225;47.804;12.116;2023-06-22T12:55:23;13.05;;;5.78;;
25279;SDS011;13225;47.804;12.116;2023-06-22T12:57:49;13.10;;;6.10;;
25279;SDS011;13225;47.804;12.116;2023-06-22T13:00:15;14.30;;;6.07;;
25279;SDS011;13225;47.804;12.116;2023-06-22T13:02:41;13.55;;;5.97;;
25279;SDS011;13225;47.804;12.116;2023-06-22T13:05:07;16.80;;;5.43;;
25279;SDS011;13225;47.804;12.116;2023-06-22T13:07:33;13.98;;;5.82;;
25279;SDS011;13225;47.804;12.116;2023-06-22T13:09:59;12.85;;;5.82;;
25279;SDS011;13225;47.804;12.116;2023-06-22T13:12:25;17.63;;;5.63;;
25279;SDS011;13225;47.804;12.116;2023-06-22T13:14:50;17.40;;;5.50;;
25279;SDS011;13225;47.804;12.116;2023-06-22T13:17:16;12.98;;;5.85;;
25279;SDS011;13225;47.804;12.116;2023-06-22T13:19:41;14.07;;;5.03;;
25279;SDS011;13225;47.804;12.116;2023-06-22T13:22:40;16.50;;;5.55;;
25279;SDS011;13225;47.804;12.116;2023-06-22T13:25:07;13.75;;;6.00;;
25279;SDS011;13225;47.804;12.116;2023-06-22T13:27:36;14.98;;;5.57;;
25279;SDS011;13225;47.804;12.116;2023-06-22T13:30:03;15.10;;;5.72;;
25279;SDS011;13225;47.804;12.116;2023-06-22T13:32:29;11.18;;;5.47;;
25279;SDS011;13225;47.804;12.116;2023-06-22T13:34:55;14.32;;;5.68;;
25279;SDS011;13225;47.804;12.116;2023-06-22T13:37:20;12.45;;;5.28;;
25279;SDS011;13225;47.804;12.116;2023-06-22T13:39:46;11.40;;;5.45;;
25279;SDS011;13225;47.804;12.116;2023-06-22T13:42:11;14.50;;;5.47;;
25279;SDS011;13225;47.804;12.116;2023-06-22T13:44:37;16.73;;;5.50;;
25279;SDS011;13225;47.804;12.116;2023-06-22T13:47:03;12.25;;;5.22;;
25279;SDS011;13225;47.804;12.116;2023-06-22T13:49:29;11.23;;;5.47;;
25279;SDS011;13225;47.804;12.116;2023-06-22T13:51:55;10.57;;;4.93;;
25279;SDS011;13225;47.804;12.116;2023-06-22T13:54:21;39.63;;;10.10;;
25279;SDS011;13225;47.804;12.116;2023-06-22T13:56:46;18.60;;;6.85;;
25279;SDS011;13225;47.804;12.116;2023-06-22T13:59:12;18.98;;;6.03;;
25279;SDS011;13225;47.804;12.116;2023-06-22T14:01:37;14.85;;;5.50;;
25279;SDS011;13225;47.804;12.116;2023-06-22T14:04:06;18.60;;;6.43;;
25279;SDS011;13225;47.804;12.116;2023-06-22T14:06:32;16.73;;;5.57;;
25279;SDS011;13225;47.804;12.116;2023-06-22T14:08:58;13.75;;;5.40;;
25279;SDS011;13225;47.804;12.116;2023-06-22T14:11:24;14.30;;;5.53;;
25279;SDS011;13225;47.804;12.116;2023-06-22T14:13:50;12.30;;;5.72;;
25279;SDS011;13225;47.804;12.116;2023-06-22T14:16:15;14.10;;;6.05;;
25279;SDS011;13225;47.804;12.116;2023-06-22T14:18:41;11.93;;;5.20;;
25279;SDS011;13225;47.804;12.116;2023-06-22T14:21:07;12.30;;;5.75;;
25279;SDS011;13225;47.804;12.116;2023-06-22T14:23:33;12.02;;;5.47;;
25279;SDS011;13225;47.804;12.116;2023-06-22T14:25:58;17.85;;;5.95;;
25279;SDS011;13225;47.804;12.116;2023-06-22T14:28:24;11.23;;;5.50;;
25279;SDS011;13225;47.804;12.116;2023-06-22T14:30:49;13.40;;;5.78;;